sensor_id;sensor_type;location;lat;lon;timestamp;P1;durP1;ratioP1;P2;durP2;ratioP2
18726;SDS011;9492;51.888;5.186;2023-07-24T00:01:38;1.90;;;1.80;;
18726;SDS011;9492;51.888;5.186;2023-07-24T00:04:04;1.87;;;1.77;;
18726;SDS011;9492;51.888;5.186;2023-07-24T00:06:30;2.70;;;2.50;;
18726;SDS011;9492;51.888;5.186;2023-07-24T00:08:56;1.90;;;1.70;;
18726;SDS011;9492;51.888;5.186;2023-07-24T00:11:22;1.63;;;1.53;;
18726;SDS011;9492;51.888;5.186;2023-07-24T00:13:48;2.03;;;1.60;;
18726;SDS011;9492;51.888;5.186;2023-07-24T00:16:14;2.70;;;1.73;;
18726;SDS011;9492;51.888;5.186;2023-07-24T00:18:40;2.10;;;1.90;;
18726;SDS011;9492;51.888;5.186;2023-07-24T00:21:06;1.63;;;1.53;;
18726;SDS011;9492;51.888;5.186;2023-07-24T00:23:32;1.80;;;1.70;;
18726;SDS011;9492;51.888;5.186;2023-07-24T00:25:58;1.80;;;1.70;;
18726;SDS011;9492;51.888;5.186;2023-07-24T00:28:24;2.17;;;1.73;;
18726;SDS011;9492;51.888;5.186;2023-07-24T00:30:50;1.90;;;1.80;;
18726;SDS011;9492;51.888;5.186;2023-07-24T00:33:16;2.03;;;1.93;;
18726;SDS011;9492;51.888;5.186;2023-07-24T00:35:42;1.47;;;1.37;;
18726;SDS011;9492;51.888;5.186;2023-07-24T00:38:08;2.13;;;1.83;;
18726;SDS011;9492;51.888;5.186;2023-07-24T00:40:34;1.50;;;1.40;;
18726;SDS011;9492;51.888;5.186;2023-07-24T00:43:00;1.60;;;1.50;;
18726;SDS011;9492;51.888;5.186;2023-07-24T00:45:26;2.07;;;1.87;;
18726;SDS011;9492;51.888;5.186;2023-07-24T00:47:52;1.77;;;1.60;;
18726;SDS011;9492;51.888;5.186;2023-07-24T00:50:18;1.87;;;1.67;;
18726;SDS011;9492;51.888;5.186;2023-07-24T00:52:44;2.27;;;1.60;;
18726;SDS011;9492;51.888;5.186;2023-07-24T00:55:11;1.87;;;1.60;;
18726;SDS011;9492;51.888;5.186;2023-07-24T00:57:37;2.07;;;1.57;;
18726;SDS011;9492;51.888;5.186;2023-07-24T01:00:04;1.77;;;1.53;;
18726;SDS011;9492;51.888;5.186;2023-07-24T01:02:30;1.80;;;1.63;;
18726;SDS011;9492;51.888;5.186;2023-07-24T01:04:56;1.80;;;1.70;;
18726;SDS011;9492;51.888;5.186;2023-07-24T01:07:22;1.83;;;1.73;;
18726;SDS011;9492;51.888;5.186;2023-07-24T01:09:49;1.43;;;1.33;;
18726;SDS011;9492;51.888;5.186;2023-07-24T01:16:00;1.70;;;1.60;;
18726;SDS011;9492;51.888;5.186;2023-07-24T01:18:08;2.07;;;1.57;;
18726;SDS011;9492;51.888;5.186;2023-07-24T01:20:36;1.77;;;1.57;;
18726;SDS011;9492;51.888;5.186;2023-07-24T01:25:35;1.80;;;1.50;;
18726;SDS011;9492;51.888;5.186;2023-07-24T01:28:05;2.03;;;1.40;;
18726;SDS011;9492;51.888;5.186;2023-07-24T01:30:31;1.40;;;1.30;;
18726;SDS011;9492;51.888;5.186;2023-07-24T01:32:57;1.57;;;1.47;;
18726;SDS011;9492;51.888;5.186;2023-07-24T01:35:24;2.40;;;1.50;;
18726;SDS011;9492;51.888;5.186;2023-07-24T01:37:52;2.67;;;1.30;;
18726;SDS011;9492;51.888;5.186;2023-07-24T01:40:18;1.60;;;1.50;;
18726;SDS011;9492;51.888;5.186;2023-07-24T01:42:44;2.10;;;1.60;;
18726;SDS011;9492;51.888;5.186;2023-07-24T01:45:11;1.70;;;1.60;;
18726;SDS011;9492;51.888;5.186;2023-07-24T01:47:40;3.43;;;1.50;;
18726;SDS011;9492;51.888;5.186;2023-07-24T01:50:06;1.50;;;1.40;;
18726;SDS011;9492;51.888;5.186;2023-07-24T01:52:32;1.53;;;1.43;;
18726;SDS011;9492;51.888;5.186;2023-07-24T01:54:58;1.70;;;1.60;;
18726;SDS011;9492;51.888;5.186;2023-07-24T01:57:24;1.60;;;1.50;;
18726;SDS011;9492;51.888;5.186;2023-07-24T01:59:50;1.60;;;1.50;;
18726;SDS011;9492;51.888;5.186;2023-07-24T02:02:16;1.60;;;1.50;;
18726;SDS011;9492;51.888;5.186;2023-07-24T02:04:42;1.87;;;1.50;;
18726;SDS011;9492;51.888;5.186;2023-07-24T02:07:08;1.50;;;1.40;;
18726;SDS011;9492;51.888;5.186;2023-07-24T02:09:34;1.70;;;1.60;;
18726;SDS011;9492;51.888;5.186;2023-07-24T02:12:00;1.50;;;1.40;;
18726;SDS011;9492;51.888;5.186;2023-07-24T02:14:27;2.00;;;1.80;;
18726;SDS011;9492;51.888;5.186;2023-07-24T02:16:53;2.80;;;1.77;;
18726;SDS011;9492;51.888;5.186;2023-07-24T02:19:19;1.67;;;1.50;;
18726;SDS011;9492;51.888;5.186;2023-07-24T02:21:45;2.70;;;1.83;;
18726;SDS011;9492;51.888;5.186;2023-07-24T02:24:11;1.90;;;1.80;;
18726;SDS011;9492;51.888;5.186;2023-07-24T02:26:37;3.57;;;2.20;;
18726;SDS011;9492;51.888;5.186;2023-07-24T02:29:03;2.20;;;1.97;;
18726;SDS011;9492;51.888;5.186;2023-07-24T02:31:29;2.20;;;2.00;;
18726;SDS011;9492;51.888;5.186;2023-07-24T02:33:55;1.97;;;1.80;;
18726;SDS011;9492;51.888;5.186;2023-07-24T02:36:23;2.80;;;1.87;;
18726;SDS011;9492;51.888;5.186;2023-07-24T02:38:49;2.07;;;1.87;;
18726;SDS011;9492;51.888;5.186;2023-07-24T02:41:15;2.83;;;2.27;;
18726;SDS011;9492;51.888;5.186;2023-07-24T02:43:41;1.67;;;1.57;;
18726;SDS011;9492;51.888;5.186;2023-07-24T02:46:07;2.07;;;1.83;;
18726;SDS011;9492;51.888;5.186;2023-07-24T02:48:34;2.60;;;2.23;;
18726;SDS011;9492;51.888;5.186;2023-07-24T02:51:00;4.10;;;2.30;;
18726;SDS011;9492;51.888;5.186;2023-07-24T02:53:26;2.40;;;2.20;;
18726;SDS011;9492;51.888;5.186;2023-07-24T02:55:52;2.30;;;2.10;;
18726;SDS011;9492;51.888;5.186;2023-07-24T02:58:18;2.53;;;2.20;;
18726;SDS011;9492;51.888;5.186;2023-07-24T03:00:44;2.17;;;1.97;;
18726;SDS011;9492;51.888;5.186;2023-07-24T03:03:10;2.57;;;2.37;;
18726;SDS011;9492;51.888;5.186;2023-07-24T03:05:36;2.80;;;2.60;;
18726;SDS011;9492;51.888;5.186;2023-07-24T03:08:02;3.87;;;2.80;;
18726;SDS011;9492;51.888;5.186;2023-07-24T03:10:28;3.73;;;3.00;;
18726;SDS011;9492;51.888;5.186;2023-07-24T03:12:54;4.33;;;2.80;;
18726;SDS011;9492;51.888;5.186;2023-07-24T03:15:20;3.23;;;2.70;;
18726;SDS011;9492;51.888;5.186;2023-07-24T03:17:47;2.70;;;2.40;;
18726;SDS011;9492;51.888;5.186;2023-07-24T03:20:16;2.53;;;2.33;;
18726;SDS011;9492;51.888;5.186;2023-07-24T03:22:43;3.77;;;2.60;;
18726;SDS011;9492;51.888;5.186;2023-07-24T03:25:09;3.50;;;2.70;;
18726;SDS011;9492;51.888;5.186;2023-07-24T03:27:35;2.73;;;2.53;;
18726;SDS011;9492;51.888;5.186;2023-07-24T03:30:01;2.77;;;2.57;;
18726;SDS011;9492;51.888;5.186;2023-07-24T03:32:28;3.30;;;2.90;;
18726;SDS011;9492;51.888;5.186;2023-07-24T03:34:54;3.07;;;2.77;;
18726;SDS011;9492;51.888;5.186;2023-07-24T03:37:20;3.50;;;3.13;;
18726;SDS011;9492;51.888;5.186;2023-07-24T03:39:46;4.17;;;3.17;;
18726;SDS011;9492;51.888;5.186;2023-07-24T03:42:23;4.33;;;3.67;;
18726;SDS011;9492;51.888;5.186;2023-07-24T03:44:50;5.23;;;3.50;;
18726;SDS011;9492;51.888;5.186;2023-07-24T03:47:16;3.23;;;2.93;;
18726;SDS011;9492;51.888;5.186;2023-07-24T03:49:42;4.57;;;3.63;;
18726;SDS011;9492;51.888;5.186;2023-07-24T03:52:08;3.90;;;3.07;;
18726;SDS011;9492;51.888;5.186;2023-07-24T03:54:34;3.00;;;2.80;;
18726;SDS011;9492;51.888;5.186;2023-07-24T03:57:03;4.27;;;3.23;;
18726;SDS011;9492;51.888;5.186;2023-07-24T03:59:29;4.30;;;3.30;;
18726;SDS011;9492;51.888;5.186;2023-07-24T04:01:55;4.83;;;3.40;;
18726;SDS011;9492;51.888;5.186;2023-07-24T04:04:22;3.27;;;2.83;;
18726;SDS011;9492;51.888;5.186;2023-07-24T04:06:48;3.50;;;3.20;;
18726;SDS011;9492;51.888;5.186;2023-07-24T04:09:14;4.00;;;3.60;;
18726;SDS011;9492;51.888;5.186;2023-07-24T04:11:43;4.13;;;3.10;;
18726;SDS011;9492;51.888;5.186;2023-07-24T04:14:10;4.77;;;3.70;;
18726;SDS011;9492;51.888;5.186;2023-07-24T04:16:36;3.30;;;3.00;;
18726;SDS011;9492;51.888;5.186;2023-07-24T04:19:02;4.33;;;3.50;;
18726;SDS011;9492;51.888;5.186;2023-07-24T04:21:28;4.43;;;3.40;;
18726;SDS011;9492;51.888;5.186;2023-07-24T04:23:54;6.20;;;3.93;;
18726;SDS011;9492;51.888;5.186;2023-07-24T04:26:20;6.23;;;4.43;;
18726;SDS011;9492;51.888;5.186;2023-07-24T04:28:46;4.57;;;3.67;;
18726;SDS011;9492;51.888;5.186;2023-07-24T04:31:13;3.80;;;3.40;;
18726;SDS011;9492;51.888;5.186;2023-07-24T04:33:39;3.60;;;3.30;;
18726;SDS011;9492;51.888;5.186;2023-07-24T04:36:05;3.93;;;3.50;;
18726;SDS011;9492;51.888;5.186;2023-07-24T04:38:31;5.07;;;3.73;;
18726;SDS011;9492;51.888;5.186;2023-07-24T04:40:59;5.97;;;4.47;;
18726;SDS011;9492;51.888;5.186;2023-07-24T04:43:26;4.03;;;3.43;;
18726;SDS011;9492;51.888;5.186;2023-07-24T04:45:52;4.17;;;3.50;;
18726;SDS011;9492;51.888;5.186;2023-07-24T04:48:18;5.53;;;3.63;;
18726;SDS011;9492;51.888;5.186;2023-07-24T04:50:44;4.83;;;4.10;;
18726;SDS011;9492;51.888;5.186;2023-07-24T04:53:12;5.17;;;4.00;;
18726;SDS011;9492;51.888;5.186;2023-07-24T04:55:38;5.50;;;3.83;;
18726;SDS011;9492;51.888;5.186;2023-07-24T04:58:04;4.87;;;4.30;;
18726;SDS011;9492;51.888;5.186;2023-07-24T05:00:30;6.20;;;4.93;;
18726;SDS011;9492;51.888;5.186;2023-07-24T05:02:56;5.70;;;4.57;;
18726;SDS011;9492;51.888;5.186;2023-07-24T05:05:22;5.07;;;4.57;;
18726;SDS011;9492;51.888;5.186;2023-07-24T05:07:48;4.77;;;4.27;;
18726;SDS011;9492;51.888;5.186;2023-07-24T05:10:14;6.50;;;4.37;;
18726;SDS011;9492;51.888;5.186;2023-07-24T05:12:41;5.67;;;4.83;;
18726;SDS011;9492;51.888;5.186;2023-07-24T05:15:07;6.60;;;5.27;;
18726;SDS011;9492;51.888;5.186;2023-07-24T05:17:33;5.40;;;4.50;;
18726;SDS011;9492;51.888;5.186;2023-07-24T05:19:59;6.73;;;5.50;;
18726;SDS011;9492;51.888;5.186;2023-07-24T05:22:25;8.63;;;6.10;;
18726;SDS011;9492;51.888;5.186;2023-07-24T05:24:51;6.10;;;4.90;;
18726;SDS011;9492;51.888;5.186;2023-07-24T05:27:17;5.77;;;4.70;;
18726;SDS011;9492;51.888;5.186;2023-07-24T05:29:43;7.10;;;4.60;;
18726;SDS011;9492;51.888;5.186;2023-07-24T05:32:09;7.97;;;5.13;;
18726;SDS011;9492;51.888;5.186;2023-07-24T05:34:35;6.07;;;4.83;;
18726;SDS011;9492;51.888;5.186;2023-07-24T05:37:01;5.77;;;4.80;;
18726;SDS011;9492;51.888;5.186;2023-07-24T05:39:29;7.90;;;5.00;;
18726;SDS011;9492;51.888;5.186;2023-07-24T05:41:55;6.53;;;5.03;;
18726;SDS011;9492;51.888;5.186;2023-07-24T05:44:21;7.10;;;4.83;;
18726;SDS011;9492;51.888;5.186;2023-07-24T05:46:47;5.87;;;4.77;;
18726;SDS011;9492;51.888;5.186;2023-07-24T05:49:14;6.87;;;5.13;;
18726;SDS011;9492;51.888;5.186;2023-07-24T05:51:41;6.03;;;4.70;;
18726;SDS011;9492;51.888;5.186;2023-07-24T05:54:07;6.07;;;4.70;;
18726;SDS011;9492;51.888;5.186;2023-07-24T05:56:33;6.43;;;5.27;;
18726;SDS011;9492;51.888;5.186;2023-07-24T05:58:59;7.63;;;5.20;;
18726;SDS011;9492;51.888;5.186;2023-07-24T06:01:26;5.27;;;4.20;;
18726;SDS011;9492;51.888;5.186;2023-07-24T06:03:52;7.23;;;4.60;;
18726;SDS011;9492;51.888;5.186;2023-07-24T06:06:18;7.17;;;4.77;;
18726;SDS011;9492;51.888;5.186;2023-07-24T06:08:44;5.30;;;4.80;;
18726;SDS011;9492;51.888;5.186;2023-07-24T06:11:13;6.10;;;5.10;;
18726;SDS011;9492;51.888;5.186;2023-07-24T06:13:39;6.03;;;4.90;;
18726;SDS011;9492;51.888;5.186;2023-07-24T06:16:07;7.67;;;5.60;;
18726;SDS011;9492;51.888;5.186;2023-07-24T06:18:34;8.87;;;5.57;;
18726;SDS011;9492;51.888;5.186;2023-07-24T06:21:00;6.77;;;5.77;;
18726;SDS011;9492;51.888;5.186;2023-07-24T06:23:26;6.63;;;5.30;;
18726;SDS011;9492;51.888;5.186;2023-07-24T06:25:52;6.53;;;5.27;;
18726;SDS011;9492;51.888;5.186;2023-07-24T06:28:18;7.90;;;5.70;;
18726;SDS011;9492;51.888;5.186;2023-07-24T06:30:44;8.53;;;6.50;;
18726;SDS011;9492;51.888;5.186;2023-07-24T06:33:10;8.03;;;6.60;;
18726;SDS011;9492;51.888;5.186;2023-07-24T06:35:37;6.83;;;5.93;;
18726;SDS011;9492;51.888;5.186;2023-07-24T06:38:03;6.83;;;5.57;;
18726;SDS011;9492;51.888;5.186;2023-07-24T06:40:29;7.60;;;6.53;;
18726;SDS011;9492;51.888;5.186;2023-07-24T06:42:55;7.97;;;6.50;;
18726;SDS011;9492;51.888;5.186;2023-07-24T06:45:21;7.50;;;6.63;;
18726;SDS011;9492;51.888;5.186;2023-07-24T06:47:47;9.27;;;7.27;;
18726;SDS011;9492;51.888;5.186;2023-07-24T06:50:13;7.53;;;6.73;;
18726;SDS011;9492;51.888;5.186;2023-07-24T06:52:39;9.60;;;6.77;;
18726;SDS011;9492;51.888;5.186;2023-07-24T06:55:05;7.87;;;6.10;;
18726;SDS011;9492;51.888;5.186;2023-07-24T06:57:31;7.07;;;5.73;;
18726;SDS011;9492;51.888;5.186;2023-07-24T06:59:57;10.97;;;7.17;;
18726;SDS011;9492;51.888;5.186;2023-07-24T07:02:23;10.17;;;6.10;;
18726;SDS011;9492;51.888;5.186;2023-07-24T07:04:49;8.67;;;6.77;;
18726;SDS011;9492;51.888;5.186;2023-07-24T07:07:22;7.77;;;6.20;;
18726;SDS011;9492;51.888;5.186;2023-07-24T07:09:48;10.20;;;5.17;;
18726;SDS011;9492;51.888;5.186;2023-07-24T07:12:14;7.97;;;5.07;;
18726;SDS011;9492;51.888;5.186;2023-07-24T07:14:40;7.43;;;5.53;;
18726;SDS011;9492;51.888;5.186;2023-07-24T07:17:06;8.40;;;5.60;;
18726;SDS011;9492;51.888;5.186;2023-07-24T07:19:32;9.50;;;5.70;;
18726;SDS011;9492;51.888;5.186;2023-07-24T07:21:59;7.37;;;5.70;;
18726;SDS011;9492;51.888;5.186;2023-07-24T07:24:25;6.97;;;5.77;;
18726;SDS011;9492;51.888;5.186;2023-07-24T07:26:51;8.70;;;5.73;;
18726;SDS011;9492;51.888;5.186;2023-07-24T07:29:17;10.27;;;6.63;;
18726;SDS011;9492;51.888;5.186;2023-07-24T07:34:13;6.67;;;5.50;;
18726;SDS011;9492;51.888;5.186;2023-07-24T07:36:39;8.63;;;5.97;;
18726;SDS011;9492;51.888;5.186;2023-07-24T07:39:05;7.63;;;6.70;;
18726;SDS011;9492;51.888;5.186;2023-07-24T07:41:31;8.73;;;5.77;;
18726;SDS011;9492;51.888;5.186;2023-07-24T07:43:57;9.93;;;6.27;;
18726;SDS011;9492;51.888;5.186;2023-07-24T07:46:23;8.60;;;6.90;;
18726;SDS011;9492;51.888;5.186;2023-07-24T07:48:49;12.03;;;6.13;;
18726;SDS011;9492;51.888;5.186;2023-07-24T07:51:16;8.07;;;7.23;;
18726;SDS011;9492;51.888;5.186;2023-07-24T07:53:42;8.20;;;5.77;;
18726;SDS011;9492;51.888;5.186;2023-07-24T07:56:09;8.60;;;7.20;;
18726;SDS011;9492;51.888;5.186;2023-07-24T07:58:35;8.53;;;6.63;;
18726;SDS011;9492;51.888;5.186;2023-07-24T08:01:05;6.93;;;6.23;;
18726;SDS011;9492;51.888;5.186;2023-07-24T08:03:31;7.37;;;6.60;;
18726;SDS011;9492;51.888;5.186;2023-07-24T08:05:57;6.97;;;6.27;;
18726;SDS011;9492;51.888;5.186;2023-07-24T08:08:25;10.87;;;6.33;;
18726;SDS011;9492;51.888;5.186;2023-07-24T08:10:51;7.57;;;5.83;;
18726;SDS011;9492;51.888;5.186;2023-07-24T08:13:17;7.90;;;6.23;;
18726;SDS011;9492;51.888;5.186;2023-07-24T08:15:43;6.63;;;6.03;;
18726;SDS011;9492;51.888;5.186;2023-07-24T08:18:09;8.03;;;6.60;;
18726;SDS011;9492;51.888;5.186;2023-07-24T08:20:36;11.40;;;5.97;;
18726;SDS011;9492;51.888;5.186;2023-07-24T08:23:03;8.77;;;6.40;;
18726;SDS011;9492;51.888;5.186;2023-07-24T08:25:29;6.37;;;5.77;;
18726;SDS011;9492;51.888;5.186;2023-07-24T08:27:55;7.97;;;5.43;;
18726;SDS011;9492;51.888;5.186;2023-07-24T08:30:21;7.10;;;5.63;;
18726;SDS011;9492;51.888;5.186;2023-07-24T08:32:47;8.87;;;5.53;;
18726;SDS011;9492;51.888;5.186;2023-07-24T08:35:15;7.33;;;6.07;;
18726;SDS011;9492;51.888;5.186;2023-07-24T08:37:44;10.53;;;6.43;;
18726;SDS011;9492;51.888;5.186;2023-07-24T08:40:10;6.53;;;5.70;;
18726;SDS011;9492;51.888;5.186;2023-07-24T08:42:39;8.57;;;5.93;;
18726;SDS011;9492;51.888;5.186;2023-07-24T08:45:12;6.27;;;5.23;;
18726;SDS011;9492;51.888;5.186;2023-07-24T08:47:40;7.30;;;5.70;;
18726;SDS011;9492;51.888;5.186;2023-07-24T08:50:09;7.00;;;5.23;;
18726;SDS011;9492;51.888;5.186;2023-07-24T08:52:39;7.10;;;5.73;;
18726;SDS011;9492;51.888;5.186;2023-07-24T08:55:10;9.87;;;5.63;;
18726;SDS011;9492;51.888;5.186;2023-07-24T08:57:36;7.93;;;5.33;;
18726;SDS011;9492;51.888;5.186;2023-07-24T09:00:03;8.97;;;5.23;;
18726;SDS011;9492;51.888;5.186;2023-07-24T09:02:33;6.07;;;4.97;;
18726;SDS011;9492;51.888;5.186;2023-07-24T09:04:59;7.33;;;5.20;;
18726;SDS011;9492;51.888;5.186;2023-07-24T09:07:25;7.03;;;4.67;;
18726;SDS011;9492;51.888;5.186;2023-07-24T09:09:51;6.80;;;4.53;;
18726;SDS011;9492;51.888;5.186;2023-07-24T09:12:17;5.67;;;4.53;;
18726;SDS011;9492;51.888;5.186;2023-07-24T09:14:43;5.73;;;4.27;;
18726;SDS011;9492;51.888;5.186;2023-07-24T09:17:10;5.57;;;4.20;;
18726;SDS011;9492;51.888;5.186;2023-07-24T09:19:39;4.60;;;3.90;;
18726;SDS011;9492;51.888;5.186;2023-07-24T09:24:35;6.20;;;4.93;;
18726;SDS011;9492;51.888;5.186;2023-07-24T09:27:04;7.80;;;4.97;;
18726;SDS011;9492;51.888;5.186;2023-07-24T09:29:31;6.30;;;4.23;;
18726;SDS011;9492;51.888;5.186;2023-07-24T09:31:57;5.43;;;4.07;;
18726;SDS011;9492;51.888;5.186;2023-07-24T09:34:23;4.10;;;3.70;;
18726;SDS011;9492;51.888;5.186;2023-07-24T09:36:50;6.40;;;4.13;;
18726;SDS011;9492;51.888;5.186;2023-07-24T09:39:26;6.00;;;4.10;;
18726;SDS011;9492;51.888;5.186;2023-07-24T09:41:52;4.43;;;3.83;;
18726;SDS011;9492;51.888;5.186;2023-07-24T09:44:19;6.83;;;4.23;;
18726;SDS011;9492;51.888;5.186;2023-07-24T09:46:47;7.50;;;3.60;;
18726;SDS011;9492;51.888;5.186;2023-07-24T09:49:14;7.50;;;3.90;;
18726;SDS011;9492;51.888;5.186;2023-07-24T09:51:40;5.53;;;3.70;;
18726;SDS011;9492;51.888;5.186;2023-07-24T09:54:14;6.20;;;4.00;;
18726;SDS011;9492;51.888;5.186;2023-07-24T09:56:41;5.73;;;5.00;;
18726;SDS011;9492;51.888;5.186;2023-07-24T09:59:07;6.60;;;4.30;;
18726;SDS011;9492;51.888;5.186;2023-07-24T10:01:35;5.20;;;4.63;;
18726;SDS011;9492;51.888;5.186;2023-07-24T10:04:02;5.20;;;4.70;;
18726;SDS011;9492;51.888;5.186;2023-07-24T10:06:29;7.20;;;5.50;;
18726;SDS011;9492;51.888;5.186;2023-07-24T10:08:56;8.63;;;6.03;;
18726;SDS011;9492;51.888;5.186;2023-07-24T10:11:23;7.37;;;5.97;;
18726;SDS011;9492;51.888;5.186;2023-07-24T10:13:49;8.73;;;6.80;;
18726;SDS011;9492;51.888;5.186;2023-07-24T10:16:16;6.20;;;5.60;;
18726;SDS011;9492;51.888;5.186;2023-07-24T10:18:45;7.20;;;5.60;;
18726;SDS011;9492;51.888;5.186;2023-07-24T10:21:12;7.30;;;5.63;;
18726;SDS011;9492;51.888;5.186;2023-07-24T10:23:42;6.20;;;5.27;;
18726;SDS011;9492;51.888;5.186;2023-07-24T10:26:08;7.40;;;5.60;;
18726;SDS011;9492;51.888;5.186;2023-07-24T10:28:35;6.13;;;5.47;;
18726;SDS011;9492;51.888;5.186;2023-07-24T10:31:08;6.23;;;4.83;;
18726;SDS011;9492;51.888;5.186;2023-07-24T10:33:36;8.77;;;5.67;;
18726;SDS011;9492;51.888;5.186;2023-07-24T10:36:07;5.93;;;5.30;;
18726;SDS011;9492;51.888;5.186;2023-07-24T10:38:37;6.77;;;5.20;;
18726;SDS011;9492;51.888;5.186;2023-07-24T10:41:04;6.13;;;5.03;;
18726;SDS011;9492;51.888;5.186;2023-07-24T10:43:39;6.97;;;5.30;;
18726;SDS011;9492;51.888;5.186;2023-07-24T10:46:06;5.87;;;4.63;;
18726;SDS011;9492;51.888;5.186;2023-07-24T10:48:37;6.87;;;4.30;;
18726;SDS011;9492;51.888;5.186;2023-07-24T10:51:10;7.73;;;5.57;;
18726;SDS011;9492;51.888;5.186;2023-07-24T10:53:40;5.77;;;4.30;;
18726;SDS011;9492;51.888;5.186;2023-07-24T10:56:06;7.27;;;4.43;;
18726;SDS011;9492;51.888;5.186;2023-07-24T10:58:33;7.83;;;4.90;;
18726;SDS011;9492;51.888;5.186;2023-07-24T11:01:03;6.03;;;5.00;;
18726;SDS011;9492;51.888;5.186;2023-07-24T11:03:29;4.60;;;4.20;;
18726;SDS011;9492;51.888;5.186;2023-07-24T11:05:56;8.80;;;5.07;;
18726;SDS011;9492;51.888;5.186;2023-07-24T11:08:23;7.83;;;4.70;;
18726;SDS011;9492;51.888;5.186;2023-07-24T11:10:50;7.90;;;4.63;;
18726;SDS011;9492;51.888;5.186;2023-07-24T11:13:16;6.93;;;4.30;;
18726;SDS011;9492;51.888;5.186;2023-07-24T11:15:43;5.73;;;4.60;;
18726;SDS011;9492;51.888;5.186;2023-07-24T11:18:09;5.67;;;4.50;;
18726;SDS011;9492;51.888;5.186;2023-07-24T11:20:46;8.93;;;5.10;;
18726;SDS011;9492;51.888;5.186;2023-07-24T11:23:12;9.90;;;5.40;;
18726;SDS011;9492;51.888;5.186;2023-07-24T11:25:39;7.07;;;4.93;;
18726;SDS011;9492;51.888;5.186;2023-07-24T11:28:06;7.30;;;5.53;;
18726;SDS011;9492;51.888;5.186;2023-07-24T11:30:35;7.30;;;4.30;;
18726;SDS011;9492;51.888;5.186;2023-07-24T11:33:10;5.43;;;4.83;;
18726;SDS011;9492;51.888;5.186;2023-07-24T11:35:37;6.07;;;5.20;;
18726;SDS011;9492;51.888;5.186;2023-07-24T11:38:08;7.90;;;5.53;;
18726;SDS011;9492;51.888;5.186;2023-07-24T11:40:36;6.40;;;4.90;;
18726;SDS011;9492;51.888;5.186;2023-07-24T11:43:03;7.17;;;5.37;;
18726;SDS011;9492;51.888;5.186;2023-07-24T11:45:29;9.70;;;5.97;;
18726;SDS011;9492;51.888;5.186;2023-07-24T11:47:55;6.87;;;5.73;;
18726;SDS011;9492;51.888;5.186;2023-07-24T11:50:22;9.10;;;5.83;;
18726;SDS011;9492;51.888;5.186;2023-07-24T11:52:48;8.03;;;5.63;;
18726;SDS011;9492;51.888;5.186;2023-07-24T11:55:19;6.37;;;5.43;;
18726;SDS011;9492;51.888;5.186;2023-07-24T11:57:55;6.27;;;5.43;;
18726;SDS011;9492;51.888;5.186;2023-07-24T12:00:22;7.03;;;5.50;;
18726;SDS011;9492;51.888;5.186;2023-07-24T12:02:48;8.53;;;5.57;;
18726;SDS011;9492;51.888;5.186;2023-07-24T12:05:14;7.10;;;5.97;;
18726;SDS011;9492;51.888;5.186;2023-07-24T12:07:41;8.73;;;5.33;;
18726;SDS011;9492;51.888;5.186;2023-07-24T12:10:09;6.00;;;5.23;;
18726;SDS011;9492;51.888;5.186;2023-07-24T12:12:45;7.93;;;5.70;;
18726;SDS011;9492;51.888;5.186;2023-07-24T12:15:11;6.90;;;5.70;;
18726;SDS011;9492;51.888;5.186;2023-07-24T12:17:38;6.77;;;5.83;;
18726;SDS011;9492;51.888;5.186;2023-07-24T12:20:04;8.30;;;6.60;;
18726;SDS011;9492;51.888;5.186;2023-07-24T12:22:37;7.67;;;6.70;;
18726;SDS011;9492;51.888;5.186;2023-07-24T12:25:04;7.60;;;6.43;;
18726;SDS011;9492;51.888;5.186;2023-07-24T12:27:30;6.90;;;6.10;;
18726;SDS011;9492;51.888;5.186;2023-07-24T12:29:56;11.50;;;7.23;;
18726;SDS011;9492;51.888;5.186;2023-07-24T12:32:23;8.63;;;7.10;;
18726;SDS011;9492;51.888;5.186;2023-07-24T12:34:52;7.70;;;6.90;;
18726;SDS011;9492;51.888;5.186;2023-07-24T12:37:19;7.37;;;5.57;;
18726;SDS011;9492;51.888;5.186;2023-07-24T12:39:45;8.47;;;6.20;;
18726;SDS011;9492;51.888;5.186;2023-07-24T12:42:11;8.70;;;5.83;;
18726;SDS011;9492;51.888;5.186;2023-07-24T12:44:38;6.63;;;5.50;;
18726;SDS011;9492;51.888;5.186;2023-07-24T12:47:04;9.37;;;6.63;;
18726;SDS011;9492;51.888;5.186;2023-07-24T12:49:30;6.70;;;5.70;;
18726;SDS011;9492;51.888;5.186;2023-07-24T12:51:56;8.97;;;6.50;;
18726;SDS011;9492;51.888;5.186;2023-07-24T12:54:22;7.10;;;5.73;;
18726;SDS011;9492;51.888;5.186;2023-07-24T12:56:49;9.47;;;6.13;;
18726;SDS011;9492;51.888;5.186;2023-07-24T12:59:15;8.03;;;5.27;;
18726;SDS011;9492;51.888;5.186;2023-07-24T13:01:41;7.70;;;5.10;;
18726;SDS011;9492;51.888;5.186;2023-07-24T13:04:08;8.00;;;5.13;;
18726;SDS011;9492;51.888;5.186;2023-07-24T13:06:34;5.40;;;4.60;;
18726;SDS011;9492;51.888;5.186;2023-07-24T13:09:00;5.50;;;4.83;;
18726;SDS011;9492;51.888;5.186;2023-07-24T13:11:26;8.23;;;4.73;;
18726;SDS011;9492;51.888;5.186;2023-07-24T13:13:55;6.73;;;5.20;;
18726;SDS011;9492;51.888;5.186;2023-07-24T13:16:21;5.77;;;4.57;;
18726;SDS011;9492;51.888;5.186;2023-07-24T13:18:47;4.97;;;3.77;;
18726;SDS011;9492;51.888;5.186;2023-07-24T13:21:13;4.80;;;3.37;;
18726;SDS011;9492;51.888;5.186;2023-07-24T13:23:42;4.83;;;3.37;;
18726;SDS011;9492;51.888;5.186;2023-07-24T13:26:08;6.90;;;3.50;;
18726;SDS011;9492;51.888;5.186;2023-07-24T13:28:36;5.13;;;3.73;;
18726;SDS011;9492;51.888;5.186;2023-07-24T13:31:15;5.30;;;3.00;;
18726;SDS011;9492;51.888;5.186;2023-07-24T13:33:42;7.50;;;3.87;;
18726;SDS011;9492;51.888;5.186;2023-07-24T13:36:08;5.00;;;3.43;;
18726;SDS011;9492;51.888;5.186;2023-07-24T13:38:34;5.63;;;3.30;;
18726;SDS011;9492;51.888;5.186;2023-07-24T13:41:00;4.30;;;3.00;;
18726;SDS011;9492;51.888;5.186;2023-07-24T13:43:30;3.33;;;3.03;;
18726;SDS011;9492;51.888;5.186;2023-07-24T13:45:56;3.83;;;3.20;;
18726;SDS011;9492;51.888;5.186;2023-07-24T13:48:24;4.43;;;3.00;;
18726;SDS011;9492;51.888;5.186;2023-07-24T13:50:51;3.50;;;3.07;;
18726;SDS011;9492;51.888;5.186;2023-07-24T13:53:18;4.60;;;3.40;;
18726;SDS011;9492;51.888;5.186;2023-07-24T13:55:46;6.47;;;4.27;;
18726;SDS011;9492;51.888;5.186;2023-07-24T13:58:12;2.80;;;2.50;;
18726;SDS011;9492;51.888;5.186;2023-07-24T14:00:38;6.63;;;3.00;;
18726;SDS011;9492;51.888;5.186;2023-07-24T14:03:04;2.50;;;2.23;;
18726;SDS011;9492;51.888;5.186;2023-07-24T14:05:30;2.97;;;2.13;;
18726;SDS011;9492;51.888;5.186;2023-07-24T14:07:57;2.73;;;2.00;;
18726;SDS011;9492;51.888;5.186;2023-07-24T14:10:23;2.90;;;2.40;;
18726;SDS011;9492;51.888;5.186;2023-07-24T14:12:49;3.70;;;2.43;;
18726;SDS011;9492;51.888;5.186;2023-07-24T14:15:15;3.20;;;2.10;;
18726;SDS011;9492;51.888;5.186;2023-07-24T14:17:41;3.00;;;2.40;;
18726;SDS011;9492;51.888;5.186;2023-07-24T14:20:08;2.20;;;2.00;;
18726;SDS011;9492;51.888;5.186;2023-07-24T14:22:34;2.53;;;2.33;;
18726;SDS011;9492;51.888;5.186;2023-07-24T14:25:00;2.93;;;2.10;;
18726;SDS011;9492;51.888;5.186;2023-07-24T14:27:26;2.23;;;2.03;;
18726;SDS011;9492;51.888;5.186;2023-07-24T14:29:52;2.00;;;1.80;;
18726;SDS011;9492;51.888;5.186;2023-07-24T14:32:18;3.47;;;2.10;;
18726;SDS011;9492;51.888;5.186;2023-07-24T14:34:47;5.77;;;3.10;;
18726;SDS011;9492;51.888;5.186;2023-07-24T14:39:44;3.60;;;2.23;;
18726;SDS011;9492;51.888;5.186;2023-07-24T14:42:12;3.87;;;2.30;;
18726;SDS011;9492;51.888;5.186;2023-07-24T14:44:38;2.93;;;2.10;;
18726;SDS011;9492;51.888;5.186;2023-07-24T14:47:04;2.60;;;2.27;;
18726;SDS011;9492;51.888;5.186;2023-07-24T14:49:32;3.37;;;2.03;;
18726;SDS011;9492;51.888;5.186;2023-07-24T14:51:58;2.93;;;2.10;;
18726;SDS011;9492;51.888;5.186;2023-07-24T14:54:24;3.70;;;2.57;;
18726;SDS011;9492;51.888;5.186;2023-07-24T14:56:50;6.80;;;2.13;;
18726;SDS011;9492;51.888;5.186;2023-07-24T14:59:17;5.37;;;2.57;;
18726;SDS011;9492;51.888;5.186;2023-07-24T15:01:43;3.70;;;1.93;;
18726;SDS011;9492;51.888;5.186;2023-07-24T15:04:09;4.03;;;1.67;;
18726;SDS011;9492;51.888;5.186;2023-07-24T15:06:35;2.13;;;1.50;;
18726;SDS011;9492;51.888;5.186;2023-07-24T15:09:01;3.40;;;1.57;;
18726;SDS011;9492;51.888;5.186;2023-07-24T15:11:27;5.60;;;1.70;;